Dover, Delaware
Current Conditions -  °F | °C
As of 2:58 AM on Sunday 21 Dec 2014 (Local Time) from KDOV Reporting Station
Overcast Overcast  
Wind Chill: 29°   Ceiling: 8000
Heat Index: 29°   Visibility: 10mi
Dew Point: 26°   Wind: 3mph
Humidity: 91%   Direction: 280°W
Pressure: 30.29"   Gusts: NA
Location:  39.16°N, 75.52°W
Report Text: KDOV 210758Z AUTO 28003KT 10SM OVC080 M02/M03 A3029 RMK AO2 SLP261 T10181031
Loading
Personal Weather Stations






























Interactive Weather Map New forecast layout! Learn more

10-Day Weather Forecast

Advertisements
Track Severe Weather on mobile